Time;durP1;ratioP1;P1;durP2;ratioP2;P2;SDS_P1;SDS_P2;PMS_P1;PMS_P2;Temp;Humidity;BMP_temperature;BMP_pressure;BME280_temperature;BME280_humidity;BME280_pressure;Samples;Min_cycle;Max_cycle;Signal;HPM_P1;HPM_P2
2021/09/21 00:01:18;;;;;;;;;44.75;34.75;;;;;18.56;53.96;101985.81;5000504;28;45393;-48
2021/09/21 00:03:43;;;;;;;;;46.25;37.25;;;;;18.51;53.90;101984.16;5001316;28;45390;-49
2021/09/21 00:06:09;;;;;;;;;47.50;37.50;;;;;18.45;53.98;101986.97;5001206;28;45277;-52
2021/09/21 00:08:35;;;;;;;;;48.25;37.75;;;;;18.44;53.97;101992.31;5001269;28;45443;-49
2021/09/21 00:11:03;;;;;;;;;46.50;35.50;;;;;18.39;54.01;101992.47;5001030;28;46359;-49
2021/09/21 00:13:29;;;;;;;;;47.50;39.25;;;;;18.37;53.84;101994.28;4999864;28;45350;-46
2021/09/21 00:15:56;;;;;;;;;47.75;36.25;;;;;18.31;53.87;101989.13;5001354;28;45517;-49
2021/09/21 00:18:22;;;;;;;;;42.00;34.75;;;;;18.29;54.14;101990.97;4999994;28;45537;-51
2021/09/21 00:20:47;;;;;;;;;48.00;36.50;;;;;18.26;54.07;101991.91;5000780;28;45780;-50
2021/09/21 00:23:12;;;;;;;;;41.00;34.50;;;;;18.23;54.00;101997.31;5001096;28;45312;-49
2021/09/21 00:25:38;;;;;;;;;37.50;32.50;;;;;18.19;53.97;102001.84;5016475;28;45557;-48
2021/09/21 00:28:04;;;;;;;;;33.75;31.25;;;;;18.14;54.15;102002.88;5011666;28;45246;-45
2021/09/21 00:30:30;;;;;;;;;42.75;33.25;;;;;18.14;54.02;102013.53;5000534;28;45454;-50
2021/09/21 00:33:03;;;;;;;;;33.75;30.00;;;;;18.11;53.96;102014.47;5000902;28;45349;-48
2021/09/21 00:35:33;;;;;;;;;38.25;32.00;;;;;18.06;54.12;102020.81;5000579;28;45306;-51
2021/09/21 00:37:59;;;;;;;;;39.25;33.75;;;;;18.03;54.17;102019.09;5008355;28;46351;-51
2021/09/21 00:40:25;;;;;;;;;32.50;29.50;;;;;18.01;54.05;102020.94;5018898;28;45632;-50
2021/09/21 00:42:51;;;;;;;;;36.50;29.75;;;;;17.98;53.96;102005.06;5020368;28;45258;-50
2021/09/21 00:45:23;;;;;;;;;35.00;30.50;;;;;17.96;54.04;102013.09;5004862;28;45333;-47
2021/09/21 00:47:49;;;;;;;;;34.50;29.75;;;;;17.93;53.99;102023.75;5000791;28;45368;-51
2021/09/21 00:50:15;;;;;;;;;37.75;32.50;;;;;17.91;54.09;102014.06;5000062;28;46192;-48
2021/09/21 00:52:40;;;;;;;;;36.00;31.75;;;;;17.89;54.32;102014.09;5000622;28;45330;-48
2021/09/21 00:55:06;;;;;;;;;38.00;33.00;;;;;17.87;54.02;102023.91;5000511;28;45326;-46
2021/09/21 00:57:35;;;;;;;;;31.25;27.50;;;;;17.85;54.47;102023.94;4982826;28;45334;-47
2021/09/21 01:00:00;;;;;;;;;40.75;31.50;;;;;17.81;54.13;102018.72;5016140;28;46983;-52
2021/09/21 01:02:25;;;;;;;;;29.50;27.00;;;;;17.80;54.01;102025.84;5009492;28;45176;-49
2021/09/21 01:04:51;;;;;;;;;29.75;26.75;;;;;17.78;53.94;102019.66;5000354;28;45440;-50
2021/09/21 01:07:16;;;;;;;;;35.25;30.00;;;;;17.76;54.12;102021.50;5000308;28;45274;-52
2021/09/21 01:09:43;;;;;;;;;36.75;30.25;;;;;17.74;53.82;102018.00;5000166;28;45225;-51
2021/09/21 01:12:09;;;;;;;;;27.25;27.25;;;;;17.72;53.88;102022.47;5006407;28;45775;-49
2021/09/21 01:14:35;;;;;;;;;32.00;28.25;;;;;17.72;54.09;102025.13;5000266;28;45363;-47
2021/09/21 01:17:00;;;;;;;;;37.75;33.75;;;;;17.70;54.15;102027.84;5000222;28;45364;-48
2021/09/21 01:19:26;;;;;;;;;39.00;30.25;;;;;17.68;54.19;102026.13;5000019;28;45348;-49
2021/09/21 01:21:51;;;;;;;;;39.00;32.75;;;;;17.65;54.00;102032.38;4999926;28;45338;-51
2021/09/21 01:24:19;;;;;;;;;34.00;30.25;;;;;17.63;53.99;102036.00;5004601;28;45831;-51
2021/09/21 01:26:44;;;;;;;;;32.75;27.00;;;;;17.62;54.10;102028.94;5019969;28;45463;-52
2021/09/21 01:29:10;;;;;;;;;44.00;33.50;;;;;17.59;53.83;102034.31;5001203;28;45593;-50
2021/09/21 01:31:35;;;;;;;;;36.00;32.75;;;;;17.57;53.97;102030.81;5000062;28;45335;-47
2021/09/21 01:34:01;;;;;;;;;31.25;27.75;;;;;17.53;53.91;102041.53;5000215;28;45388;-51
2021/09/21 01:36:29;;;;;;;;;32.50;31.50;;;;;17.52;53.79;102047.75;4999890;28;45456;-49
2021/09/21 01:38:55;;;;;;;;;40.50;36.25;;;;;17.49;53.79;102041.63;4999739;28;45406;-49
2021/09/21 01:41:21;;;;;;;;;37.50;32.50;;;;;17.46;53.53;102050.53;5008106;28;45318;-50
2021/09/21 01:43:47;;;;;;;;;35.75;32.75;;;;;17.42;53.68;102050.63;5014852;28;45429;-49
2021/09/21 01:46:15;;;;;;;;;35.00;32.50;;;;;17.37;53.90;102043.66;5009942;28;45266;-49
2021/09/21 01:48:41;;;;;;;;;24.50;23.25;;;;;17.34;53.95;102046.34;5014583;28;46222;-49
2021/09/21 01:51:12;;;;;;;;;39.25;34.50;;;;;17.32;53.93;102049.97;5009965;28;45266;-51
2021/09/21 01:53:58;;;;;;;;;36.75;33.25;;;;;17.27;53.98;102051.84;5001748;28;45333;-47
2021/09/21 01:59:07;;;;;;;;;36.75;34.00;;;;;17.18;54.15;102048.50;5009094;28;45329;-48
2021/09/21 02:01:33;;;;;;;;;35.25;30.25;;;;;17.15;53.98;102048.53;4999491;28;45399;-50
2021/09/21 02:04:00;;;;;;;;;36.25;32.75;;;;;17.11;53.91;102060.16;4999871;28;45329;-51
2021/09/21 02:06:40;;;;;;;;;39.25;35.00;;;;;17.06;53.89;102054.91;4999168;28;45290;-52
2021/09/21 02:09:08;;;;;;;;;40.75;35.50;;;;;17.05;53.88;102062.91;4999585;28;46025;-47
2021/09/21 02:11:35;;;;;;;;;39.50;33.75;;;;;17.02;53.77;102068.31;4999419;28;45428;-47
2021/09/21 02:14:01;;;;;;;;;38.00;34.50;;;;;16.98;53.72;102058.63;4999436;28;45318;-50
2021/09/21 02:16:28;;;;;;;;;40.75;33.25;;;;;16.93;53.90;102048.13;4999452;28;45447;-47
2021/09/21 02:18:54;;;;;;;;;34.75;29.25;;;;;16.93;53.79;102071.13;4999275;28;46217;-48
2021/09/21 02:21:19;;;;;;;;;39.50;33.00;;;;;16.91;53.84;102065.84;4999150;28;45424;-47
2021/09/21 02:23:46;;;;;;;;;40.25;34.50;;;;;16.87;54.05;102062.34;5001210;28;45341;-47
2021/09/21 02:26:11;;;;;;;;;37.50;32.75;;;;;16.85;53.86;102065.94;5022847;28;45428;-51
2021/09/21 02:28:38;;;;;;;;;31.25;31.00;;;;;16.83;53.83;102065.97;5020938;28;48207;-50
2021/09/21 02:31:03;;;;;;;;;38.25;33.50;;;;;16.81;54.06;102074.88;5004887;28;45273;-50
2021/09/21 02:33:29;;;;;;;;;40.25;34.00;;;;;16.79;53.89;102080.22;5002795;28;45229;-49
2021/09/21 02:35:54;;;;;;;;;48.50;35.75;;;;;16.77;53.84;102089.13;5002506;28;45189;-51
2021/09/21 02:38:20;;;;;;;;;42.50;35.75;;;;;16.76;54.12;102087.38;5009874;28;47261;-51
2021/09/21 02:40:46;;;;;;;;;42.25;34.75;;;;;16.73;53.96;102085.66;5005972;28;45315;-50
2021/09/21 02:43:11;;;;;;;;;41.75;36.25;;;;;16.71;53.72;102090.97;5022437;28;45266;-48
2021/09/21 02:45:36;;;;;;;;;37.75;32.50;;;;;16.70;53.78;102088.34;5003775;28;45255;-51
2021/09/21 02:48:02;;;;;;;;;43.25;35.50;;;;;16.68;54.13;102080.41;5002472;28;46223;-51
2021/09/21 02:50:27;;;;;;;;;40.25;34.50;;;;;16.67;53.71;102083.97;5002238;28;45710;-49
2021/09/21 02:52:53;;;;;;;;;39.75;33.50;;;;;16.62;54.32;102077.00;5002542;28;45337;-50
2021/09/21 02:55:18;;;;;;;;;39.00;33.50;;;;;16.63;53.62;102076.06;5002321;28;45398;-50
2021/09/21 02:57:44;;;;;;;;;47.00;36.00;;;;;16.63;53.85;102070.78;5002063;28;46168;-48
2021/09/21 03:00:11;;;;;;;;;45.75;36.50;;;;;16.61;54.21;102070.81;5002080;28;45425;-51
2021/09/21 03:02:37;;;;;;;;;44.50;34.25;;;;;16.60;53.92;102066.41;5002560;28;45361;-49
2021/09/21 03:05:14;;;;;;;;;42.25;35.50;;;;;16.59;53.96;102072.63;5002075;28;45315;-51
2021/09/21 03:07:46;;;;;;;;;45.75;36.25;;;;;16.57;54.00;102069.13;5000796;28;46768;-50
2021/09/21 03:10:30;;;;;;;;;37.50;34.00;;;;;16.55;54.12;102068.25;5002048;28;45373;-51
2021/09/21 03:18:05;;;;;;;;;42.00;35.25;;;;;16.46;53.90;102071.94;5001964;28;45318;-51
2021/09/21 03:20:31;;;;;;;;;38.75;34.75;;;;;16.45;53.97;102082.59;5001709;28;45297;-51
2021/09/21 03:22:56;;;;;;;;;48.50;37.00;;;;;16.43;54.15;102087.94;5002339;28;45340;-51
2021/09/21 03:25:22;;;;;;;;;42.50;36.00;;;;;16.39;54.06;102079.16;5015206;28;45351;-51
2021/09/21 03:27:48;;;;;;;;;44.25;35.50;;;;;16.39;54.35;102088.91;5001919;28;46093;-52
2021/09/21 03:30:14;;;;;;;;;44.25;37.25;;;;;16.38;53.94;102090.66;5001798;28;45305;-51
2021/09/21 03:32:40;;;;;;;;;44.25;35.75;;;;;16.38;53.81;102089.81;5001906;28;45236;-52
2021/09/21 03:35:07;;;;;;;;;46.50;35.75;;;;;16.37;54.26;102096.00;5000582;28;45187;-52
2021/09/21 03:37:33;;;;;;;;;51.00;39.75;;;;;16.37;54.03;102093.34;5013756;28;46996;-51
2021/09/21 03:39:59;;;;;;;;;49.50;39.25;;;;;16.35;54.08;102095.13;5013742;28;45369;-51
2021/09/21 03:42:24;;;;;;;;;42.50;36.00;;;;;16.34;54.33;102091.63;5014396;28;45404;-49
2021/09/21 03:44:50;;;;;;;;;48.00;36.75;;;;;16.33;54.39;102100.47;5001746;28;45464;-49
2021/09/21 03:47:15;;;;;;;;;45.00;36.50;;;;;16.31;54.24;102096.09;5001352;28;46753;-48
2021/09/21 03:49:41;;;;;;;;;52.75;39.00;;;;;16.32;54.25;102095.22;5000355;28;45337;-52
2021/09/21 03:52:07;;;;;;;;;42.25;35.50;;;;;16.32;54.34;102105.81;5001329;28;45342;-50
2021/09/21 03:54:32;;;;;;;;;46.75;38.75;;;;;16.31;54.16;102094.31;5001864;28;45251;-51
2021/09/21 03:56:58;;;;;;;;;47.25;40.00;;;;;16.29;54.03;102097.91;5001006;28;45218;-51
2021/09/21 03:59:24;;;;;;;;;48.25;38.00;;;;;16.31;54.54;102104.06;5001606;28;45238;-51
2021/09/21 04:01:51;;;;;;;;;50.75;39.75;;;;;16.31;54.49;102109.38;5001494;28;45526;-50
2021/09/21 04:04:16;;;;;;;;;44.25;37.75;;;;;16.27;54.00;102105.88;5001478;28;45243;-52
2021/09/21 04:06:41;;;;;;;;;45.25;36.00;;;;;16.29;54.26;102108.50;5000878;28;46064;-50
2021/09/21 04:09:07;;;;;;;;;50.50;35.75;;;;;16.27;54.15;102107.66;5001423;28;45194;-50
2021/09/21 04:11:32;;;;;;;;;50.75;39.25;;;;;16.27;54.22;102116.50;5000029;28;45143;-50
2021/09/21 04:13:57;;;;;;;;;47.00;38.50;;;;;16.26;54.33;102120.03;5001263;28;45313;-49
2021/09/21 04:16:23;;;;;;;;;48.50;40.00;;;;;16.25;54.38;102113.88;5000939;28;45907;-49
2021/09/21 04:18:48;;;;;;;;;45.50;36.75;;;;;16.25;54.36;102121.81;5001258;28;45317;-49
2021/09/21 04:21:15;;;;;;;;;47.00;39.50;;;;;16.26;54.46;102125.34;5000936;28;45431;-52
2021/09/21 04:23:40;;;;;;;;;46.50;37.25;;;;;16.25;54.46;102121.81;5001233;28;45302;-52
2021/09/21 04:26:09;;;;;;;;;63.00;50.50;;;;;16.24;54.45;102130.69;5014400;28;45313;-48
2021/09/21 04:28:36;;;;;;;;;50.00;40.00;;;;;16.22;54.30;102135.13;5001039;28;45254;-51
2021/09/21 04:31:08;;;;;;;;;50.00;41.50;;;;;16.20;54.35;102125.44;5019275;28;45390;-51
2021/09/21 04:33:36;;;;;;;;;48.25;40.75;;;;;16.20;54.49;102123.69;5020750;28;45258;-52
2021/09/21 04:36:05;;;;;;;;;52.25;41.75;;;;;16.19;54.11;102124.56;5000982;28;45941;-50
2021/09/21 04:38:31;;;;;;;;;51.75;42.75;;;;;16.22;54.36;102131.59;5000689;28;45345;-50
2021/09/21 04:40:57;;;;;;;;;49.25;41.00;;;;;16.21;54.52;102133.41;5005889;28;45510;-50
2021/09/21 04:43:22;;;;;;;;;49.25;40.50;;;;;16.20;54.18;102136.03;5007253;28;45230;-51
2021/09/21 04:45:48;;;;;;;;;50.75;42.25;;;;;16.20;54.42;102139.59;5020244;28;46001;-48
2021/09/21 04:48:13;;;;;;;;;46.50;37.25;;;;;16.19;54.29;102137.84;5007487;28;45219;-49
2021/09/21 04:50:39;;;;;;;;;49.25;39.00;;;;;16.18;54.12;102141.38;5006792;28;45246;-53
2021/09/21 04:53:04;;;;;;;;;49.25;39.00;;;;;16.15;54.33;102138.78;5020583;28;45175;-49
2021/09/21 04:55:29;;;;;;;;;54.00;41.25;;;;;16.16;54.13;102145.84;5020519;28;45158;-49
2021/09/21 04:57:55;;;;;;;;;49.00;40.25;;;;;16.16;54.42;102144.97;5020259;28;45226;-50
2021/09/21 05:00:20;;;;;;;;;50.50;41.00;;;;;16.10;54.45;102140.63;5020374;28;45514;-51
2021/09/21 05:02:45;;;;;;;;;51.50;41.00;;;;;16.15;53.86;102149.41;5020417;28;45255;-51
2021/09/21 05:05:11;;;;;;;;;47.50;39.25;;;;;16.12;54.52;102152.09;5020013;28;45294;-50
2021/09/21 05:07:36;;;;;;;;;57.25;44.25;;;;;16.08;54.33;102156.53;5020187;28;45354;-49
2021/09/21 05:10:03;;;;;;;;;50.50;41.75;;;;;16.07;54.37;102151.28;5020327;28;45288;-49
2021/09/21 05:12:28;;;;;;;;;52.50;42.25;;;;;16.00;54.65;102149.59;5018486;28;45665;-49
2021/09/21 05:14:53;;;;;;;;;53.25;42.50;;;;;15.99;54.11;102151.38;5020084;28;46156;-50
2021/09/21 05:17:19;;;;;;;;;52.50;42.00;;;;;15.98;54.48;102152.28;5020151;28;45336;-50
2021/09/21 05:19:45;;;;;;;;;49.25;41.25;;;;;15.92;54.01;102149.72;5020065;28;45269;-48
2021/09/21 05:22:10;;;;;;;;;49.50;39.50;;;;;15.92;54.06;102153.25;5019831;28;45308;-50
2021/09/21 05:24:35;;;;;;;;;54.75;44.75;;;;;15.90;54.13;102157.69;5019917;28;45312;-50
2021/09/21 05:27:01;;;;;;;;;48.75;39.25;;;;;15.89;54.20;102165.69;5019549;28;45350;-52
2021/09/21 05:29:26;;;;;;;;;48.75;41.00;;;;;15.86;54.14;102163.94;5013472;28;45724;-48
2021/09/21 05:31:51;;;;;;;;;50.00;40.25;;;;;15.84;54.01;102164.88;4999757;28;45366;-49
2021/09/21 05:34:17;;;;;;;;;53.25;41.25;;;;;15.78;53.83;102163.13;4999746;28;45377;-50
2021/09/21 05:36:42;;;;;;;;;49.50;40.25;;;;;15.78;54.50;102165.78;5010042;28;45382;-54
2021/09/21 05:39:14;;;;;;;;;51.50;41.25;;;;;15.75;54.32;102166.69;5014423;28;45515;-55
2021/09/21 05:41:39;;;;;;;;;50.50;41.75;;;;;15.72;53.91;102169.41;5010631;28;45460;-52
2021/09/21 05:44:05;;;;;;;;;46.75;36.50;;;;;15.67;54.29;102171.25;5013042;28;45260;-49
2021/09/21 05:46:30;;;;;;;;;48.75;40.00;;;;;15.67;54.21;102179.19;5011394;28;45452;-52
2021/09/21 05:48:59;;;;;;;;;52.75;40.25;;;;;15.66;54.05;102187.13;5013467;28;45342;-50
2021/09/21 05:51:25;;;;;;;;;43.50;36.50;;;;;15.65;53.92;102196.00;4999521;28;45380;-51
2021/09/21 05:53:50;;;;;;;;;41.00;35.25;;;;;15.63;54.40;102197.78;5005346;28;46941;-51
2021/09/21 05:56:15;;;;;;;;;49.75;39.75;;;;;15.60;54.27;102196.91;5019139;28;45237;-47
2021/09/21 05:58:42;;;;;;;;;49.75;39.50;;;;;15.59;54.48;102205.75;5001444;28;45828;-49
2021/09/21 06:01:07;;;;;;;;;47.50;38.50;;;;;15.58;54.14;102206.69;5004520;28;45482;-48
2021/09/21 06:03:33;;;;;;;;;47.00;36.00;;;;;15.57;54.53;102211.97;5035671;28;45431;-49
2021/09/21 06:05:59;;;;;;;;;46.50;37.50;;;;;15.55;54.22;102214.66;5008682;28;45341;-49
2021/09/21 06:08:24;;;;;;;;;34.00;31.50;;;;;15.55;54.38;102214.66;5003442;28;45336;-48
2021/09/21 06:10:49;;;;;;;;;44.75;36.75;;;;;15.54;54.16;102210.22;5015757;28;45413;-45
2021/09/21 06:13:15;;;;;;;;;45.50;36.25;;;;;15.54;54.26;102218.19;5015162;28;46042;-46
2021/09/21 06:15:40;;;;;;;;;46.00;37.75;;;;;15.54;54.43;102214.66;5002651;28;45333;-48
2021/09/21 06:18:06;;;;;;;;;46.25;37.75;;;;;15.52;53.94;102225.28;5002480;28;45400;-48
2021/09/21 06:20:31;;;;;;;;;46.50;38.75;;;;;15.53;54.34;102224.38;5002553;28;45400;-49
2021/09/21 06:22:56;;;;;;;;;45.50;37.00;;;;;15.51;54.03;102228.84;5005583;28;47234;-51
2021/09/21 06:25:22;;;;;;;;;44.50;36.00;;;;;15.53;53.78;102244.69;5016152;28;45315;-49
2021/09/21 06:27:47;;;;;;;;;46.00;39.25;;;;;15.53;53.91;102237.63;5021031;28;45416;-51
2021/09/21 06:30:15;;;;;;;;;49.00;39.75;;;;;15.52;54.33;102246.47;5009102;28;45481;-49
2021/09/21 06:32:41;;;;;;;;;41.50;36.50;;;;;15.51;54.04;102244.72;5003943;28;47124;-48
2021/09/21 06:35:07;;;;;;;;;47.75;38.00;;;;;15.52;53.84;102249.13;5002563;28;45253;-50
2021/09/21 06:37:33;;;;;;;;;46.50;38.25;;;;;15.52;53.70;102243.84;5002686;28;45478;-51
2021/09/21 06:39:59;;;;;;;;;45.75;36.50;;;;;15.51;54.39;102244.72;5013463;28;45357;-51
2021/09/21 06:42:25;;;;;;;;;44.50;34.75;;;;;15.52;54.22;102250.88;5019064;28;46019;-51
2021/09/21 06:44:50;;;;;;;;;45.00;38.00;;;;;15.54;53.86;102246.47;5010258;28;45312;-51
2021/09/21 06:47:17;;;;;;;;;37.25;33.00;;;;;15.51;53.89;102252.69;5015726;28;45825;-48
2021/09/21 06:49:42;;;;;;;;;42.00;35.25;;;;;15.52;53.69;102254.44;5002489;28;45254;-52
2021/09/21 06:52:08;;;;;;;;;43.00;36.00;;;;;15.52;53.94;102267.69;5001847;28;46064;-50
2021/09/21 06:54:33;;;;;;;;;39.00;33.00;;;;;15.52;53.75;102272.97;5014786;28;45237;-51
2021/09/21 06:56:59;;;;;;;;;34.25;31.00;;;;;15.52;53.91;102277.38;5021811;28;46019;-49
2021/09/21 06:59:24;;;;;;;;;39.25;32.25;;;;;15.48;53.63;102273.88;5022472;28;45192;-51
2021/09/21 07:01:50;;;;;;;;;31.00;30.50;;;;;15.49;53.83;102280.94;5021961;28;45289;-48
2021/09/21 07:04:16;;;;;;;;;40.25;32.50;;;;;15.48;53.53;102286.25;5022162;28;45218;-52
2021/09/21 07:06:41;;;;;;;;;30.00;28.50;;;;;15.50;53.46;102280.06;5021735;28;45242;-50
2021/09/21 07:09:07;;;;;;;;;37.25;32.00;;;;;15.47;53.88;102277.44;5020635;28;45618;-50
2021/09/21 07:11:32;;;;;;;;;35.00;32.50;;;;;15.49;53.86;102286.25;5021824;28;46278;-52
2021/09/21 07:13:57;;;;;;;;;35.25;30.25;;;;;15.49;53.52;102291.53;5021935;28;45391;-52
2021/09/21 07:16:23;;;;;;;;;36.50;31.75;;;;;15.48;53.50;102300.38;5021858;28;45374;-52
2021/09/21 07:18:48;;;;;;;;;38.50;32.50;;;;;15.47;53.13;102297.75;5020630;28;45373;-52
2021/09/21 07:21:13;;;;;;;;;34.50;31.00;;;;;15.47;53.74;102309.25;5021495;28;46259;-51
2021/09/21 07:23:39;;;;;;;;;31.25;30.00;;;;;15.48;53.53;102305.66;5008041;28;45396;-50
2021/09/21 07:26:08;;;;;;;;;34.00;32.00;;;;;15.48;53.59;102304.81;5019893;28;45592;-53
2021/09/21 07:28:34;;;;;;;;;28.00;26.50;;;;;15.48;53.66;102316.28;5008286;28;45463;-49
2021/09/21 07:31:00;;;;;;;;;31.25;29.50;;;;;15.49;53.40;102318.03;5001568;28;45326;-52
2021/09/21 07:33:25;;;;;;;;;33.00;30.25;;;;;15.51;53.23;102308.31;5024534;28;45231;-52
2021/09/21 07:35:51;;;;;;;;;32.50;29.50;;;;;15.49;53.50;102306.56;5018898;28;45180;-51
2021/09/21 07:38:19;;;;;;;;;32.25;29.50;;;;;15.49;53.38;102303.91;5024067;28;45225;-53
2021/09/21 07:40:44;;;;;;;;;31.00;28.25;;;;;15.52;53.54;102310.06;5021259;28;47049;-52
2021/09/21 07:43:10;;;;;;;;;29.50;28.50;;;;;15.56;53.21;102319.72;5021308;28;45324;-50
2021/09/21 07:45:35;;;;;;;;;32.00;29.00;;;;;15.56;53.72;102318.88;5003352;28;45317;-52
2021/09/21 07:48:02;;;;;;;;;33.00;28.75;;;;;15.58;53.14;102320.59;5001869;28;45326;-52
2021/09/21 07:50:28;;;;;;;;;30.25;27.50;;;;;15.61;53.35;102325.00;5001094;28;46329;-51
2021/09/21 07:52:54;;;;;;;;;25.25;25.00;;;;;15.63;53.17;102322.31;5001467;28;45350;-52
2021/09/21 07:55:20;;;;;;;;;32.00;27.25;;;;;15.64;52.86;102321.44;5001523;28;45416;-50
2021/09/21 07:57:45;;;;;;;;;30.75;26.75;;;;;15.65;52.98;102320.56;5001192;28;45222;-51
2021/09/21 08:00:14;;;;;;;;;29.75;25.50;;;;;15.64;53.25;102324.09;5001151;28;45646;-52
2021/09/21 08:02:41;;;;;;;;;35.00;29.00;;;;;15.69;52.86;102331.06;5001612;28;45389;-51
2021/09/21 08:05:07;;;;;;;;;25.50;22.50;;;;;15.70;52.95;102329.31;5032434;28;45377;-51
2021/09/21 08:07:32;;;;;;;;;29.75;26.25;;;;;15.73;52.97;102321.34;5019786;28;45539;-53
2021/09/21 08:10:00;;;;;;;;;28.75;27.50;;;;;15.74;52.96;102326.59;5014908;28;45389;-52
2021/09/21 08:12:30;;;;;;;;;24.00;20.50;;;;;15.76;52.90;102321.31;5000057;28;45309;-48
2021/09/21 08:14:56;;;;;;;;;28.75;27.00;;;;;15.80;52.76;102328.31;5006718;28;45330;-53
2021/09/21 08:17:24;;;;;;;;;29.00;24.75;;;;;15.86;52.55;102338.91;5006142;28;45489;-53
2021/09/21 08:19:50;;;;;;;;;29.00;26.00;;;;;15.85;52.47;102326.53;5000696;28;45304;-51
2021/09/21 08:22:16;;;;;;;;;24.50;23.75;;;;;15.91;52.51;102333.53;5000273;28;45250;-50
2021/09/21 08:24:42;;;;;;;;;26.25;25.25;;;;;15.97;52.65;102335.25;5009282;28;45338;-52
2021/09/21 08:27:08;;;;;;;;;24.75;23.25;;;;;16.00;52.42;102343.16;5006766;28;45281;-53
2021/09/21 08:29:33;;;;;;;;;21.50;19.00;;;;;16.04;52.88;102340.44;5000874;28;45940;-50
2021/09/21 08:31:58;;;;;;;;;19.75;17.25;;;;;16.08;52.37;102347.47;5000928;28;45395;-51
2021/09/21 08:34:24;;;;;;;;;18.50;17.50;;;;;16.11;52.57;102346.56;4999848;28;45933;-50
2021/09/21 08:36:51;;;;;;;;;18.25;17.75;;;;;16.19;52.50;102351.78;5013372;28;45404;-48
2021/09/21 08:39:18;;;;;;;;;20.50;20.50;;;;;16.23;52.05;102361.47;5019402;28;47125;-49
2021/09/21 08:41:43;;;;;;;;;18.75;15.00;;;;;16.27;52.34;102349.91;5018507;28;45257;-48
2021/09/21 08:44:10;;;;;;;;;16.50;16.00;;;;;16.35;52.28;102355.09;5013986;28;45306;-50
2021/09/21 08:46:36;;;;;;;;;12.50;11.75;;;;;16.40;52.14;102356.81;5000721;28;45229;-54
2021/09/21 08:49:01;;;;;;;;;19.75;19.75;;;;;16.46;51.99;102363.81;5000624;28;46304;-50
2021/09/21 08:51:27;;;;;;;;;45.75;37.25;;;;;16.52;52.00;102366.38;4999096;28;45272;-49
2021/09/21 08:53:53;;;;;;;;;30.25;23.50;;;;;16.59;52.09;102369.84;5000925;28;45355;-51
2021/09/21 08:56:19;;;;;;;;;47.25;41.75;;;;;16.66;52.22;102370.63;5000614;28;45507;-52
2021/09/21 08:58:58;;;;;;;;;43.75;37.25;;;;;16.73;51.83;102359.91;5000197;28;45313;-48
2021/09/21 09:01:24;;;;;;;;;19.00;17.25;;;;;16.81;52.16;102361.56;5000600;28;45496;-51
2021/09/21 09:03:57;;;;;;;;;18.75;17.00;;;;;16.90;51.79;102364.09;5000682;28;45263;-51
2021/09/21 09:06:23;;;;;;;;;17.00;15.00;;;;;16.99;51.80;102363.09;5007725;28;45405;-50
2021/09/21 09:08:49;;;;;;;;;18.25;16.25;;;;;17.06;51.77;102364.78;5029649;28;45440;-52
2021/09/21 09:11:23;;;;;;;;;21.00;17.25;;;;;17.14;51.97;102354.00;5003087;28;45326;-51
2021/09/21 09:13:55;;;;;;;;;21.25;20.00;;;;;17.26;51.57;102356.47;5000572;28;45306;-47
2021/09/21 09:16:22;;;;;;;;;18.75;16.00;;;;;17.37;51.62;102365.16;5000115;28;45519;-51
2021/09/21 09:18:58;;;;;;;;;16.75;15.25;;;;;17.47;51.43;102360.56;5000147;28;46335;-51
2021/09/21 09:21:24;;;;;;;;;16.25;15.50;;;;;17.58;51.38;102356.81;4998742;28;45282;-51
2021/09/21 09:23:52;;;;;;;;;16.00;15.50;;;;;17.67;51.35;102348.66;5000891;28;45610;-48
2021/09/21 09:26:22;;;;;;;;;13.00;13.00;;;;;17.78;51.34;102351.16;5020048;28;45174;-48
2021/09/21 09:28:49;;;;;;;;;15.50;14.00;;;;;17.89;51.29;102356.25;5004618;28;47390;-51
2021/09/21 09:31:33;;;;;;;;;22.25;19.75;;;;;17.99;51.30;102361.38;4999979;28;45446;-51
2021/09/21 09:34:07;;;;;;;;;21.50;18.50;;;;;18.13;51.24;102370.88;5001242;28;45296;-52
2021/09/21 09:36:42;;;;;;;;;16.50;15.25;;;;;18.25;51.11;102365.31;5009711;28;45490;-50
2021/09/21 09:39:08;;;;;;;;;18.25;17.00;;;;;18.38;51.18;102370.34;5031159;28;45410;-52
2021/09/21 09:41:41;;;;;;;;;22.25;17.50;;;;;18.46;50.62;102377.28;5018316;28;45307;-50
2021/09/21 09:44:09;;;;;;;;;14.75;14.50;;;;;18.61;50.56;102377.88;5012623;28;45445;-51
2021/09/21 09:46:47;;;;;;;;;20.25;16.25;;;;;18.73;50.80;102379.38;5012678;28;45513;-51
2021/09/21 09:49:13;;;;;;;;;19.25;18.75;;;;;18.84;50.94;102372.00;5008069;28;45949;-51
2021/09/21 09:51:50;;;;;;;;;18.00;15.25;;;;;18.95;50.42;102364.69;5004146;28;45363;-48
2021/09/21 09:54:17;;;;;;;;;17.00;16.25;;;;;19.07;50.51;102367.97;4999936;28;45274;-50
2021/09/21 09:56:43;;;;;;;;;16.25;16.00;;;;;19.17;50.03;102367.72;4999717;28;45466;-51
2021/09/21 09:59:09;;;;;;;;;16.50;15.50;;;;;19.28;50.40;102372.78;4999336;28;46027;-52
2021/09/21 10:01:35;;;;;;;;;19.25;17.00;;;;;19.39;50.46;102363.63;4999716;28;45247;-46
2021/09/21 10:04:01;;;;;;;;;15.50;14.25;;;;;19.52;49.77;102366.84;5002960;28;45479;-50
2021/09/21 10:06:30;;;;;;;;;16.75;15.00;;;;;19.63;49.72;102368.34;5012444;28;45494;-48
2021/09/21 10:08:56;;;;;;;;;15.75;15.50;;;;;19.75;50.01;102371.59;5016057;28;46258;-51
2021/09/21 10:11:22;;;;;;;;;20.25;16.50;;;;;19.87;50.10;102373.06;5014262;28;45564;-52
2021/09/21 10:13:48;;;;;;;;;16.25;16.25;;;;;19.97;49.52;102374.56;5013184;28;45277;-47
2021/09/21 10:16:13;;;;;;;;;16.50;14.25;;;;;20.10;49.39;102375.06;5014661;28;45234;-51
2021/09/21 10:18:39;;;;;;;;;15.75;15.50;;;;;20.20;49.15;102373.91;5017556;28;47724;-52
2021/09/21 10:21:05;;;;;;;;;22.00;19.50;;;;;20.31;49.65;102368.25;5011427;28;45976;-50
2021/09/21 10:23:36;;;;;;;;;15.75;15.75;;;;;20.43;49.70;102372.38;5013175;28;45175;-51
2021/09/21 10:26:19;;;;;;;;;17.50;17.00;;;;;20.58;48.99;102373.69;5008089;28;45320;-51
2021/09/21 10:28:46;;;;;;;;;18.25;15.75;;;;;20.70;49.49;102375.09;5018291;28;46457;-52
2021/09/21 10:31:14;;;;;;;;;21.00;18.50;;;;;20.82;49.01;102373.88;5003403;28;45396;-49
2021/09/21 10:33:41;;;;;;;;;21.00;20.50;;;;;20.95;49.38;102377.91;5016558;28;45447;-50
2021/09/21 10:36:17;;;;;;;;;17.50;17.00;;;;;21.07;48.74;102376.66;5016787;28;45411;-49
2021/09/21 10:39:07;;;;;;;;;17.25;17.25;;;;;21.22;48.46;102372.56;5016857;28;46896;-50
2021/09/21 10:41:33;;;;;;;;;22.00;19.50;;;;;21.35;49.01;102376.59;5013440;28;45257;-52
2021/09/21 10:44:06;;;;;;;;;21.75;17.50;;;;;21.53;48.43;102374.22;5011736;28;45293;-48
2021/09/21 10:46:58;;;;;;;;;24.00;20.00;;;;;21.68;48.84;102363.00;5001540;28;45405;-51
2021/09/21 10:49:33;;;;;;;;;25.75;22.75;;;;;21.88;48.88;102373.00;5011943;28;45428;-49
2021/09/21 10:52:08;;;;;;;;;20.50;17.75;;;;;22.05;48.56;102367.03;5033957;28;45470;-49
2021/09/21 10:54:39;;;;;;;;;18.25;17.50;;;;;22.21;48.14;102378.06;5009398;28;45479;-49
2021/09/21 10:57:26;;;;;;;;;18.25;17.50;;;;;22.36;48.32;102368.56;5009042;28;45254;-48
2021/09/21 11:00:01;;;;;;;;;24.50;22.25;;;;;22.55;48.28;102371.44;5005366;28;46133;-48
2021/09/21 11:02:35;;;;;;;;;21.00;18.75;;;;;22.71;48.24;102371.69;5000979;28;45129;-50
2021/09/21 11:05:02;;;;;;;;;21.75;18.50;;;;;22.84;47.94;102369.41;5013480;28;45393;-51
2021/09/21 11:07:27;;;;;;;;;21.25;18.25;;;;;22.97;47.99;102372.44;5029406;28;45190;-49
2021/09/21 11:09:55;;;;;;;;;19.75;19.25;;;;;23.07;48.05;102370.28;5002646;28;45425;-46
2021/09/21 11:12:24;;;;;;;;;22.00;18.00;;;;;23.16;48.04;102377.97;5002194;28;45364;-51
2021/09/21 11:14:52;;;;;;;;;20.00;19.50;;;;;23.23;47.67;102377.69;5014379;28;45270;-50
2021/09/21 11:17:21;;;;;;;;;18.25;16.75;;;;;23.31;47.70;102372.91;5000991;28;45321;-49